createdAt,value
2019-02-26T00:00:49.690Z,77.50
2019-02-26T00:03:22.378Z,79.30
2019-02-26T00:05:54.371Z,79.60
2019-02-26T00:08:29.058Z,79.80
2019-02-26T00:11:01.281Z,78.40
2019-02-26T00:13:34.633Z,78.90
2019-02-26T00:16:07.589Z,78.20
2019-02-26T00:18:38.221Z,78.30
2019-02-26T00:21:09.310Z,78.10
2019-02-26T00:23:42.017Z,78.30
2019-02-26T00:26:15.593Z,78.50
2019-02-26T00:28:46.242Z,78.50
2019-02-26T00:31:19.121Z,78.80
2019-02-26T00:33:51.106Z,81.30
2019-02-26T00:36:22.575Z,79.60
2019-02-26T00:38:53.534Z,79.40
2019-02-26T00:41:24.751Z,79.30
2019-02-26T00:43:59.481Z,78.90
2019-02-26T00:46:32.441Z,80.10
2019-02-26T00:49:05.146Z,83.80
2019-02-26T00:51:36.111Z,79.80
2019-02-26T00:54:07.131Z,83.50
2019-02-26T00:56:38.597Z,80.30
2019-02-26T00:59:11.009Z,80.20
2019-02-26T01:01:46.013Z,80.20
2019-02-26T01:04:15.172Z,79.90
2019-02-26T01:06:46.536Z,79.70
2019-02-26T01:09:17.817Z,79.90
2019-02-26T01:11:49.862Z,80.20
2019-02-26T01:14:23.053Z,80.60
2019-02-26T01:16:55.085Z,80.50
2019-02-26T01:19:27.239Z,80.90
2019-02-26T01:21:58.249Z,80.90
2019-02-26T01:24:30.995Z,80.60
2019-02-26T01:27:01.998Z,80.60
2019-02-26T01:29:33.006Z,80.70
2019-02-26T01:32:04.120Z,80.80
2019-02-26T01:34:35.263Z,82.50
2019-02-26T01:37:08.196Z,83.20
2019-02-26T01:39:42.341Z,81.20
2019-02-26T01:42:13.355Z,81.00
2019-02-26T01:44:44.829Z,82.50
2019-02-26T01:47:17.265Z,82.50
2019-02-26T01:49:49.419Z,82.00
2019-02-26T01:52:21.380Z,82.00
2019-02-26T01:54:53.526Z,81.70
2019-02-26T01:57:27.193Z,81.50
2019-02-26T01:59:58.612Z,81.10
2019-02-26T02:02:30.314Z,81.90
2019-02-26T02:05:03.175Z,82.50
2019-02-26T02:07:36.188Z,83.70
2019-02-26T02:10:07.640Z,83.80
2019-02-26T02:12:39.611Z,84.40
2019-02-26T02:15:12.957Z,87.60
2019-02-26T02:17:44.802Z,86.80
2019-02-26T02:20:19.534Z,82.70
2019-02-26T02:22:49.012Z,81.80
2019-02-26T02:25:20.259Z,82.60
2019-02-26T02:27:54.190Z,83.70
2019-02-26T02:30:30.331Z,84.70
2019-02-26T02:32:59.285Z,84.70
2019-02-26T02:35:30.935Z,86.60
2019-02-26T02:38:03.016Z,84.80
2019-02-26T02:40:34.709Z,85.50
2019-02-26T02:43:09.776Z,86.10
2019-02-26T02:45:38.641Z,87.20
2019-02-26T02:48:11.612Z,86.10
2019-02-26T02:50:42.373Z,81.80
2019-02-26T02:53:13.842Z,83.90
2019-02-26T02:55:47.000Z,84.20
2019-02-26T02:58:18.810Z,85.00
2019-02-26T03:00:52.225Z,84.80
2019-02-26T03:03:23.147Z,84.90
2019-02-26T03:05:55.156Z,84.50
2019-02-26T03:08:26.294Z,84.80
2019-02-26T03:10:57.297Z,84.60
2019-02-26T03:13:28.310Z,85.40
2019-02-26T03:16:01.630Z,85.50
2019-02-26T03:18:32.447Z,85.30
2019-02-26T03:21:04.812Z,85.40
2019-02-26T03:23:38.006Z,85.70
2019-02-26T03:26:12.611Z,85.20
2019-02-26T03:28:42.126Z,85.30
2019-02-26T03:31:14.207Z,85.10
2019-02-26T03:33:46.602Z,85.40
2019-02-26T03:36:19.317Z,88.00
2019-02-26T03:38:51.041Z,87.90
2019-02-26T03:41:25.776Z,84.20
2019-02-26T03:43:58.406Z,85.20
2019-02-26T03:46:28.797Z,86.00
2019-02-26T03:49:02.700Z,86.40
2019-02-26T03:51:39.080Z,87.20
2019-02-26T03:54:08.570Z,86.70
2019-02-26T03:56:39.590Z,89.20
2019-02-26T03:59:11.681Z,88.80
2019-02-26T04:01:43.421Z,88.00
2019-02-26T04:04:14.875Z,84.90
2019-02-26T04:06:47.179Z,86.20
2019-02-26T04:09:19.601Z,87.50
2019-02-26T04:11:53.414Z,86.90
2019-02-26T04:14:27.723Z,88.90
2019-02-26T04:16:58.688Z,88.80
2019-02-26T04:19:29.954Z,88.60
2019-02-26T04:22:26.578Z,87.10
2019-02-26T04:25:22.301Z,86.20
2019-02-26T04:28:30.757Z,85.30
2019-02-26T04:31:52.177Z,85.30
2019-02-26T04:34:40.681Z,87.20
2019-02-26T04:37:41.159Z,87.10
2019-02-26T04:41:14.542Z,87.50
2019-02-26T04:44:26.836Z,90.00
2019-02-26T04:47:21.923Z,89.30
2019-02-26T04:49:54.237Z,87.00
2019-02-26T04:52:24.533Z,88.10
2019-02-26T04:54:55.560Z,88.40
2019-02-26T04:57:26.590Z,88.80
2019-02-26T04:59:59.168Z,87.50
2019-02-26T05:02:30.889Z,87.40
2019-02-26T05:05:02.736Z,88.80
2019-02-26T05:07:35.580Z,87.20
2019-02-26T05:10:07.039Z,88.80
2019-02-26T05:12:40.187Z,90.20
2019-02-26T05:15:14.072Z,90.10
2019-02-26T05:17:44.125Z,88.10
2019-02-26T05:20:16.530Z,85.90
2019-02-26T05:22:47.875Z,87.60
2019-02-26T05:25:19.768Z,88.20
2019-02-26T05:27:51.054Z,87.80
2019-02-26T05:30:23.051Z,89.70
2019-02-26T05:32:57.234Z,90.20
2019-02-26T05:35:27.859Z,90.30
2019-02-26T05:38:01.009Z,89.30
2019-02-26T05:40:31.625Z,89.50
2019-02-26T05:43:04.664Z,88.90
2019-02-26T05:45:35.730Z,90.00
2019-02-26T05:48:06.887Z,90.30
2019-02-26T05:50:57.541Z,90.20
2019-02-26T05:53:30.581Z,90.30
2019-02-26T05:56:01.695Z,87.10
2019-02-26T05:58:33.536Z,88.00
2019-02-26T06:01:05.553Z,89.20
2019-02-26T06:03:39.041Z,90.10
2019-02-26T06:06:12.051Z,89.70
2019-02-26T06:08:43.218Z,90.00
2019-02-26T06:11:16.926Z,90.30
2019-02-26T06:13:46.968Z,90.70
2019-02-26T06:16:19.738Z,88.70
2019-02-26T06:18:51.746Z,90.10
2019-02-26T06:21:25.501Z,90.50
2019-02-26T06:23:56.824Z,90.40
2019-02-26T06:26:30.682Z,88.30
2019-02-26T06:29:00.656Z,89.00
2019-02-26T06:31:42.258Z,90.10
2019-02-26T06:34:16.327Z,90.40
2019-02-26T06:36:48.860Z,90.00
2019-02-26T06:39:22.276Z,90.10
2019-02-26T06:41:52.887Z,87.60
2019-02-26T06:44:36.871Z,89.20
2019-02-26T06:47:09.139Z,89.60
2019-02-26T06:49:41.429Z,90.60
2019-02-26T06:52:15.032Z,90.20
2019-02-26T06:54:50.564Z,90.10
2019-02-26T06:57:18.928Z,90.50
2019-02-26T06:59:53.157Z,90.50
2019-02-26T07:02:28.259Z,90.70
2019-02-26T07:04:57.202Z,90.20
2019-02-26T07:07:28.199Z,90.40
2019-02-26T07:09:59.233Z,90.30
2019-02-26T07:12:30.455Z,90.00
2019-02-26T07:15:01.566Z,89.70
2019-02-26T07:17:35.749Z,90.00
2019-02-26T07:20:06.162Z,88.80
2019-02-26T07:22:39.838Z,88.10
2019-02-26T07:25:13.179Z,88.20
2019-02-26T07:27:43.553Z,88.70
2019-02-26T07:30:14.977Z,88.80
2019-02-26T07:32:48.180Z,90.00
2019-02-26T07:35:18.774Z,90.30
2019-02-26T07:37:49.804Z,90.90
2019-02-26T07:40:20.940Z,90.30
2019-02-26T07:42:51.952Z,90.80
2019-02-26T07:45:24.792Z,90.50
2019-02-26T07:47:57.915Z,91.10
2019-02-26T07:50:31.475Z,91.00
2019-02-26T07:54:53.960Z,90.40
2019-02-26T07:57:27.187Z,89.50
2019-02-26T07:59:58.963Z,89.20
2019-02-26T08:02:32.400Z,90.20
2019-02-26T08:05:03.558Z,90.70
2019-02-26T08:07:34.783Z,89.90
2019-02-26T08:10:09.989Z,89.80
2019-02-26T08:12:42.679Z,90.00
2019-02-26T08:15:15.837Z,90.60
2019-02-26T08:17:50.271Z,91.20
2019-02-26T08:20:20.411Z,91.00
2019-02-26T08:22:52.379Z,91.20
2019-02-26T08:25:24.235Z,91.00
2019-02-26T08:27:56.603Z,90.00
2019-02-26T08:30:30.787Z,90.80
2019-02-26T08:33:04.837Z,91.10
2019-02-26T08:35:35.674Z,90.70
2019-02-26T08:38:10.887Z,91.20
2019-02-26T08:40:43.004Z,91.40
2019-02-26T08:43:14.828Z,91.60
2019-02-26T08:45:51.582Z,91.60
2019-02-26T08:48:24.606Z,90.50
2019-02-26T08:51:03.097Z,90.10
2019-02-26T08:53:33.112Z,89.70
2019-02-26T08:56:05.280Z,90.30
2019-02-26T08:58:41.113Z,90.40
2019-02-26T09:01:24.418Z,90.60
2019-02-26T09:03:58.968Z,90.70
2019-02-26T09:06:32.300Z,90.90
2019-02-26T09:09:05.010Z,91.00
2019-02-26T09:11:38.820Z,90.90
2019-02-26T09:14:12.094Z,90.60
2019-02-26T09:16:47.685Z,90.40
2019-02-26T09:19:18.178Z,90.60
2019-02-26T09:21:52.090Z,90.40
2019-02-26T09:24:23.600Z,90.00
2019-02-26T09:26:59.920Z,90.00
2019-02-26T09:29:31.468Z,89.70
2019-02-26T09:32:07.344Z,86.40
2019-02-26T09:40:17.207Z,90.40
2019-02-26T09:42:55.212Z,85.30
2019-02-26T09:45:29.327Z,87.40
2019-02-26T09:48:01.100Z,85.20
2019-02-26T09:50:36.111Z,83.40
2019-02-26T09:53:07.888Z,82.50
2019-02-26T09:55:40.987Z,81.20
2019-02-26T09:58:13.525Z,74.10
2019-02-26T10:00:48.088Z,79.50
2019-02-26T10:03:20.271Z,79.60
2019-02-26T10:05:53.236Z,79.60
2019-02-26T10:08:27.965Z,67.30
2019-02-26T10:11:00.322Z,79.00
2019-02-26T10:13:32.809Z,79.40
2019-02-26T10:16:06.085Z,75.00
2019-02-26T10:18:37.021Z,66.20
2019-02-26T10:21:09.137Z,61.10
2019-02-26T10:23:40.989Z,70.90
2019-02-26T10:26:12.244Z,69.80
2019-02-26T10:28:45.604Z,71.10
2019-02-26T10:31:16.182Z,70.20
2019-02-26T10:33:49.047Z,60.10
2019-02-26T10:36:20.557Z,55.80
2019-02-26T10:38:53.172Z,64.60
2019-02-26T10:41:24.425Z,63.30
2019-02-26T10:43:55.607Z,61.80
2019-02-26T10:46:26.741Z,66.70
2019-02-26T10:48:57.782Z,68.00
2019-02-26T10:51:29.317Z,65.40
2019-02-26T10:54:02.781Z,51.00
2019-02-26T10:56:39.102Z,66.10
2019-02-26T10:59:09.248Z,63.20
2019-02-26T11:01:40.405Z,47.30
2019-02-26T11:04:12.257Z,63.90
2019-02-26T11:06:45.220Z,58.70
2019-02-26T11:09:19.314Z,58.50
2019-02-26T11:11:49.514Z,61.80
2019-02-26T11:14:20.549Z,61.50
2019-02-26T11:16:51.702Z,63.00
2019-02-26T11:19:25.303Z,46.00
2019-02-26T11:21:58.267Z,53.20
2019-02-26T11:24:31.413Z,57.80
2019-02-26T11:27:02.670Z,66.40
2019-02-26T11:29:35.905Z,51.40
2019-02-26T11:32:07.800Z,54.50
2019-02-26T11:34:40.684Z,50.50
2019-02-26T11:37:12.586Z,50.20
2019-02-26T11:39:43.676Z,45.50
2019-02-26T11:42:16.434Z,58.00
2019-02-26T11:44:49.094Z,55.60
2019-02-26T11:47:20.618Z,57.40
2019-02-26T11:49:51.836Z,60.90
2019-02-26T11:52:23.044Z,53.90
2019-02-26T11:54:55.849Z,53.70
2019-02-26T11:57:27.079Z,56.20
2019-02-26T11:59:59.486Z,55.90
2019-02-26T12:02:33.859Z,51.50
2019-02-26T12:05:05.618Z,55.10
2019-02-26T12:07:38.350Z,52.10
2019-02-26T12:10:14.275Z,55.60
2019-02-26T12:12:44.582Z,42.70
2019-02-26T12:15:15.778Z,60.00
2019-02-26T12:17:51.629Z,60.10
2019-02-26T12:20:24.195Z,56.10
2019-02-26T12:22:55.584Z,47.70
2019-02-26T12:25:28.569Z,56.50
2019-02-26T12:28:00.213Z,57.50
2019-02-26T12:30:34.902Z,59.60
2019-02-26T12:33:07.686Z,68.50
2019-02-26T12:35:40.433Z,67.00
2019-02-26T12:38:18.147Z,64.10
2019-02-26T12:40:47.036Z,60.90
2019-02-26T12:43:19.126Z,56.00
2019-02-26T12:45:52.008Z,71.50
2019-02-26T12:48:23.529Z,65.10
2019-02-26T12:50:58.474Z,66.40
2019-02-26T12:53:29.339Z,62.40
2019-02-26T12:56:05.771Z,66.80
2019-02-26T12:58:37.768Z,63.10
2019-02-26T13:01:08.659Z,70.10
2019-02-26T13:03:42.776Z,66.00
2019-02-26T13:06:17.970Z,67.60
2019-02-26T13:08:47.121Z,64.30
2019-02-26T13:11:23.344Z,66.10
2019-02-26T13:13:53.721Z,64.40
2019-02-26T13:16:25.756Z,68.50
2019-02-26T13:19:00.774Z,66.80
2019-02-26T13:21:33.615Z,63.80
2019-02-26T13:24:11.851Z,61.10
2019-02-26T13:26:42.425Z,56.90
2019-02-26T13:29:12.921Z,62.70
2019-02-26T13:31:56.045Z,67.60
2019-02-26T13:34:20.306Z,60.50
2019-02-26T13:37:02.857Z,62.20
2019-02-26T13:39:40.812Z,59.90
2019-02-26T13:42:14.088Z,68.60
2019-02-26T13:44:46.310Z,68.30
2019-02-26T13:47:22.396Z,63.70
2019-02-26T13:49:54.750Z,65.70
2019-02-26T13:52:26.916Z,62.70
2019-02-26T13:55:01.975Z,64.60
2019-02-26T13:57:36.865Z,66.50
2019-02-26T14:00:11.285Z,64.00
2019-02-26T14:02:43.200Z,61.80
2019-02-26T14:05:15.842Z,66.20
2019-02-26T14:07:48.803Z,65.20
2019-02-26T14:10:22.228Z,63.50
2019-02-26T14:12:57.244Z,63.70
2019-02-26T14:15:32.655Z,64.80
2019-02-26T14:18:05.738Z,63.80
2019-02-26T14:20:39.144Z,61.20
2019-02-26T14:23:13.065Z,64.80
2019-02-26T14:25:45.689Z,64.90
2019-02-26T14:28:18.948Z,61.20
2019-02-26T14:30:52.293Z,65.10
2019-02-26T14:33:25.872Z,59.70
2019-02-26T14:35:59.932Z,60.20
2019-02-26T14:38:35.066Z,59.60
2019-02-26T14:41:12.916Z,62.60
2019-02-26T14:43:48.042Z,64.80
2019-02-26T14:46:22.761Z,60.60
2019-02-26T14:48:56.880Z,59.30
2019-02-26T14:51:30.374Z,60.90
2019-02-26T14:54:03.056Z,64.10
2019-02-26T14:56:36.018Z,60.40
2019-02-26T14:59:18.685Z,65.40
2019-02-26T15:01:50.787Z,59.60
2019-02-26T15:04:23.626Z,61.00
2019-02-26T15:06:58.719Z,60.10
2019-02-26T15:09:32.197Z,62.20
2019-02-26T15:12:12.040Z,60.80
2019-02-26T15:14:45.081Z,59.40
2019-02-26T15:17:20.527Z,60.80
2019-02-26T15:19:53.922Z,58.70
2019-02-26T15:22:25.579Z,62.00
2019-02-26T15:24:59.401Z,58.80
2019-02-26T15:27:36.892Z,58.80
2019-02-26T15:30:05.674Z,61.70
2019-02-26T15:32:41.153Z,59.20
2019-02-26T15:35:18.296Z,61.20
2019-02-26T15:37:50.738Z,60.90
2019-02-26T15:40:23.380Z,60.10
2019-02-26T15:42:56.356Z,59.40
2019-02-26T15:45:29.782Z,60.60
2019-02-26T15:48:04.036Z,62.30
2019-02-26T15:50:40.271Z,58.70
2019-02-26T15:53:12.121Z,63.10
2019-02-26T15:55:45.251Z,59.30
2019-02-26T15:58:18.417Z,62.90
2019-02-26T16:00:50.566Z,61.00
2019-02-26T16:03:22.646Z,62.20
2019-02-26T16:05:57.746Z,64.40
2019-02-26T16:08:34.545Z,65.10
2019-02-26T16:11:05.537Z,67.90
2019-02-26T16:13:39.074Z,64.10
2019-02-26T16:16:12.988Z,62.30
2019-02-26T16:18:45.100Z,64.80
2019-02-26T16:21:19.985Z,63.10
2019-02-26T16:23:51.744Z,64.40
2019-02-26T16:26:24.202Z,63.60
2019-02-26T16:28:56.714Z,64.40
2019-02-26T16:31:29.892Z,68.40
2019-02-26T16:34:02.015Z,65.50
2019-02-26T16:36:34.075Z,69.70
2019-02-26T16:39:06.629Z,68.00
2019-02-26T16:41:40.189Z,66.30
2019-02-26T16:44:19.565Z,71.30
2019-02-26T16:46:54.159Z,68.90
2019-02-26T16:49:27.853Z,69.90
2019-02-26T16:52:02.773Z,71.60
2019-02-26T16:54:38.664Z,73.20
2019-02-26T16:57:10.435Z,72.20
2019-02-26T16:59:42.432Z,73.20
2019-02-26T17:02:14.996Z,72.70
2019-02-26T17:04:50.119Z,73.80
2019-02-26T17:07:22.184Z,70.30
2019-02-26T17:09:55.614Z,71.00
2019-02-26T17:12:29.138Z,70.70
2019-02-26T17:15:03.130Z,70.00
2019-02-26T17:17:37.433Z,72.60
2019-02-26T17:20:10.396Z,72.00
2019-02-26T17:22:45.670Z,69.70
2019-02-26T17:25:17.868Z,69.60
2019-02-26T17:27:50.217Z,70.50
2019-02-26T17:30:23.936Z,74.00
2019-02-26T17:32:56.201Z,72.80
2019-02-26T17:35:29.561Z,72.20
2019-02-26T17:38:03.618Z,73.90
2019-02-26T17:40:37.807Z,73.50
2019-02-26T17:43:09.977Z,71.00
2019-02-26T17:45:42.765Z,73.40
2019-02-26T17:48:14.774Z,73.50
2019-02-26T17:50:49.650Z,75.00
2019-02-26T17:53:22.230Z,74.30
2019-02-26T17:55:54.589Z,74.20
2019-02-26T17:58:26.584Z,74.00
2019-02-26T18:00:58.981Z,69.70
2019-02-26T18:03:32.742Z,71.10
2019-02-26T18:06:05.782Z,74.30
2019-02-26T18:08:39.450Z,73.20
2019-02-26T18:11:11.360Z,71.80
2019-02-26T18:13:43.846Z,74.70
2019-02-26T18:16:18.081Z,75.80
2019-02-26T18:18:50.450Z,75.80
2019-02-26T18:21:22.685Z,74.30
2019-02-26T18:24:05.445Z,75.40
2019-02-26T18:26:57.747Z,74.60
2019-02-26T18:29:32.804Z,77.50
2019-02-26T18:32:11.234Z,78.20
2019-02-26T18:34:43.558Z,74.80
2019-02-26T18:37:17.674Z,73.30
2019-02-26T18:39:50.256Z,74.10
2019-02-26T18:42:23.823Z,75.40
2019-02-26T18:44:55.901Z,74.10
2019-02-26T18:47:28.125Z,75.00
2019-02-26T18:50:00.334Z,74.80
2019-02-26T18:52:32.303Z,75.20
2019-02-26T18:55:04.422Z,73.70
2019-02-26T18:57:43.342Z,74.80
2019-02-26T19:00:15.779Z,75.20
2019-02-26T19:02:50.127Z,76.70
2019-02-26T19:05:23.714Z,79.00
2019-02-26T19:07:55.837Z,76.90
2019-02-26T19:10:30.391Z,77.10
2019-02-26T19:13:03.508Z,79.00
2019-02-26T19:15:35.648Z,78.60
2019-02-26T19:18:11.089Z,77.20
2019-02-26T19:20:44.359Z,76.00
2019-02-26T19:23:21.702Z,77.10
2019-02-26T19:25:53.746Z,75.60
2019-02-26T19:28:28.977Z,76.30
2019-02-26T19:31:00.873Z,74.90
2019-02-26T19:33:32.869Z,77.00
2019-02-26T19:36:05.279Z,76.50
2019-02-26T19:38:38.863Z,78.10
2019-02-26T19:41:13.117Z,78.60
2019-02-26T19:43:46.608Z,78.50
2019-02-26T19:46:19.040Z,76.50
2019-02-26T19:48:51.113Z,75.70
2019-02-26T19:51:25.487Z,76.40
2019-02-26T19:53:59.162Z,75.50
2019-02-26T19:56:32.091Z,75.30
2019-02-26T19:59:04.390Z,75.70
2019-02-26T20:01:37.224Z,78.30
2019-02-26T20:04:09.380Z,80.60
2019-02-26T20:06:41.402Z,78.70
2019-02-26T20:09:14.012Z,79.70
2019-02-26T20:11:46.282Z,75.40
2019-02-26T20:14:21.735Z,79.00
2019-02-26T20:16:53.109Z,75.50
2019-02-26T20:19:31.696Z,75.40
2019-02-26T20:22:02.138Z,72.20
2019-02-26T20:24:36.317Z,72.70
2019-02-26T20:27:08.232Z,72.00
2019-02-26T20:29:42.708Z,77.00
2019-02-26T20:32:17.729Z,74.00
2019-02-26T20:34:50.364Z,77.50
2019-02-26T20:37:24.413Z,76.70
2019-02-26T20:39:55.826Z,78.00
2019-02-26T20:42:29.878Z,78.10
2019-02-26T20:45:01.761Z,77.60
2019-02-26T20:47:34.341Z,79.90
2019-02-26T20:50:06.805Z,77.50
2019-02-26T20:52:39.061Z,77.00
2019-02-26T20:55:12.706Z,78.70
2019-02-26T20:57:44.832Z,80.00
2019-02-26T21:00:18.057Z,81.30
2019-02-26T21:02:53.598Z,81.10
2019-02-26T21:05:26.145Z,78.90
2019-02-26T21:07:58.963Z,78.00
2019-02-26T21:10:33.307Z,77.80
2019-02-26T21:13:05.113Z,76.80
2019-02-26T21:15:39.235Z,80.90
2019-02-26T21:18:13.375Z,79.80
2019-02-26T21:20:46.561Z,81.50
2019-02-26T21:23:18.641Z,79.30
2019-02-26T21:25:50.854Z,78.20
2019-02-26T21:28:24.750Z,77.50
2019-02-26T21:30:56.933Z,80.50
2019-02-26T21:33:30.817Z,78.90
2019-02-26T21:36:04.212Z,79.00
2019-02-26T21:38:38.551Z,79.60
2019-02-26T21:41:09.955Z,84.60
2019-02-26T21:43:41.611Z,83.90
2019-02-26T21:46:15.803Z,81.00
2019-02-26T21:48:48.967Z,82.60
2019-02-26T21:51:20.306Z,81.10
2019-02-26T21:53:52.086Z,81.10
2019-02-26T21:56:23.921Z,83.90
2019-02-26T21:58:56.919Z,79.80
2019-02-26T22:01:29.300Z,81.50
2019-02-26T22:04:01.779Z,83.90
2019-02-26T22:06:34.243Z,80.00
2019-02-26T22:09:07.215Z,80.80
2019-02-26T22:11:40.797Z,80.20
2019-02-26T22:14:18.992Z,80.60
2019-02-26T22:16:52.035Z,81.30
2019-02-26T22:19:24.121Z,81.50
2019-02-26T22:21:58.205Z,81.80
2019-02-26T22:24:30.151Z,81.20
2019-02-26T22:27:02.779Z,81.50
2019-02-26T22:29:36.317Z,81.50
2019-02-26T22:32:08.640Z,81.50
2019-02-26T22:34:40.559Z,81.70
2019-02-26T22:37:12.744Z,84.80
2019-02-26T22:39:45.614Z,81.40
2019-02-26T22:42:17.677Z,83.20
2019-02-26T22:44:49.886Z,81.80
2019-02-26T22:47:22.858Z,84.50
2019-02-26T22:49:55.467Z,82.30
2019-02-26T22:52:30.847Z,82.90
2019-02-26T22:55:03.620Z,83.20
2019-02-26T22:57:34.998Z,83.20
2019-02-26T23:00:35.443Z,84.90
2019-02-26T23:03:10.751Z,83.20
2019-02-26T23:05:42.548Z,83.60
2019-02-26T23:08:14.764Z,83.10
2019-02-26T23:10:48.347Z,83.10
2019-02-26T23:13:20.446Z,83.50
2019-02-26T23:15:52.824Z,84.50
2019-02-26T23:18:25.567Z,84.50
2019-02-26T23:20:57.770Z,86.60
2019-02-26T23:23:41.022Z,83.50
2019-02-26T23:26:13.293Z,83.40
2019-02-26T23:28:46.199Z,83.60
2019-02-26T23:31:19.738Z,84.60
2019-02-26T23:33:50.861Z,83.70
2019-02-26T23:36:21.934Z,84.20
2019-02-26T23:38:53.445Z,85.10
2019-02-26T23:41:24.407Z,83.90
2019-02-26T23:43:55.983Z,84.60
2019-02-26T23:46:29.554Z,84.20
2019-02-26T23:49:00.234Z,84.00
2019-02-26T23:51:31.262Z,84.00
2019-02-26T23:54:04.705Z,85.00
2019-02-26T23:56:35.770Z,84.50
2019-02-26T23:59:13.782Z,84.30
